Time;durP1;ratioP1;P1;durP2;ratioP2;P2;SDS_P1;SDS_P2;PMS_P1;PMS_P2;Temp;Humidity;BMP_temperature;BMP_pressure;BME280_temperature;BME280_humidity;BME280_pressure;Samples;Min_cycle;Max_cycle;Signal;HPM_P1;HPM_P2
2022/10/03 00:00:22;;;;;;;7.28;2.50;;;13.00;99.90;;;;;;4138872;28;20128;-62
2022/10/03 00:02:33;;;;;;;7.45;2.40;;;13.00;99.90;;;;;;4167337;28;20503;-61
2022/10/03 00:05:01;;;;;;;4.82;2.42;;;13.00;99.90;;;;;;4152656;28;20040;-62
2022/10/03 00:07:54;;;;;;;7.10;2.30;;;13.00;99.90;;;;;;4150337;28;20583;-62
2022/10/03 00:10:20;;;;;;;12.52;3.40;;;13.10;99.90;;;;;;4132039;28;20069;-61
2022/10/03 00:12:41;;;;;;;6.75;3.03;;;13.00;99.90;;;;;;4159213;28;20049;-61
2022/10/03 00:15:14;;;;;;;8.45;3.10;;;13.00;99.90;;;;;;4164314;28;20396;-62
2022/10/03 00:17:23;;;;;;;;;;;13.00;99.90;;;;;;4149409;28;20103;-62
2022/10/03 00:19:42;;;;;;;7.80;2.63;;;13.00;99.90;;;;;;4165252;28;19944;-62
2022/10/03 00:21:51;;;;;;;8.23;2.85;;;13.00;99.90;;;;;;4148784;28;20041;-62
2022/10/03 00:24:38;;;;;;;5.18;2.17;;;13.10;99.90;;;;;;4153384;28;21274;-62
2022/10/03 00:26:50;;;;;;;6.20;2.40;;;13.10;99.90;;;;;;4147285;28;20476;-62
2022/10/03 00:29:30;;;;;;;5.17;2.43;;;13.10;99.90;;;;;;4152819;28;20507;-61
2022/10/03 00:32:09;;;;;;;7.20;2.30;;;13.10;99.90;;;;;;4145678;28;20268;-62
2022/10/03 00:34:25;;;;;;;5.68;2.67;;;13.10;99.90;;;;;;4149864;28;20045;-62
2022/10/03 00:36:33;;;;;;;9.27;2.97;;;13.10;99.90;;;;;;4151640;28;20077;-65
2022/10/03 00:39:10;;;;;;;7.72;2.85;;;13.10;99.90;;;;;;4152142;28;20079;-62
2022/10/03 00:41:19;;;;;;;7.53;2.25;;;13.10;99.90;;;;;;4147096;28;20613;-62
2022/10/03 00:43:49;;;;;;;4.90;2.05;;;13.10;99.90;;;;;;4148625;28;20069;-61
2022/10/03 00:46:09;;;;;;;5.35;2.28;;;13.00;99.90;;;;;;4150976;28;20048;-62
2022/10/03 00:48:46;;;;;;;7.30;2.33;;;13.10;99.90;;;;;;4149239;28;20049;-62
2022/10/03 00:51:38;;;;;;;6.75;2.38;;;13.00;99.90;;;;;;4148443;28;20037;-62
2022/10/03 00:53:39;;;;;;;6.32;2.05;;;13.00;99.90;;;;;;4098080;28;20074;-62
2022/10/03 00:56:05;;;;;;;5.38;2.45;;;13.00;99.90;;;;;;4129817;28;20045;-62
2022/10/03 00:58:22;;;;;;;7.03;2.45;;;13.00;99.90;;;;;;4154728;28;20461;-62
2022/10/03 01:00:29;;;;;;;10.38;2.90;;;13.00;99.90;;;;;;4148203;28;20029;-62
2022/10/03 01:02:30;;;;;;;7.93;2.97;;;13.00;99.90;;;;;;4147957;28;20116;-62
2022/10/03 01:05:01;;;;;;;6.68;2.25;;;13.00;99.90;;;;;;4150147;28;20513;-62
2022/10/03 01:07:21;;;;;;;5.18;2.10;;;13.00;99.90;;;;;;4146660;28;20038;-62
2022/10/03 01:09:36;;;;;;;6.85;2.65;;;12.90;99.90;;;;;;4148216;28;20076;-61
2022/10/03 01:11:36;;;;;;;5.95;2.40;;;12.90;99.90;;;;;;4164146;28;20029;-61
2022/10/03 01:13:43;;;;;;;5.40;2.30;;;12.90;99.90;;;;;;4149674;28;20049;-62
2022/10/03 01:16:18;;;;;;;8.10;2.67;;;12.90;99.90;;;;;;4168480;28;20095;-62
2022/10/03 01:18:58;;;;;;;7.05;2.28;;;12.80;99.90;;;;;;4162988;28;20549;-62
2022/10/03 01:21:20;;;;;;;3.67;2.10;;;12.80;99.90;;;;;;4160177;28;20495;-62
2022/10/03 01:23:39;;;;;;;4.18;2.00;;;12.80;99.90;;;;;;4168111;28;20037;-62
2022/10/03 01:25:57;;;;;;;7.55;2.25;;;12.70;99.90;;;;;;4164758;28;20361;-62
2022/10/03 01:30:33;;;;;;;4.20;2.10;;;12.70;99.90;;;;;;4164797;28;20057;-62
2022/10/03 01:32:56;;;;;;;5.72;2.22;;;12.70;99.90;;;;;;4167481;28;20029;-62
2022/10/03 01:35:05;;;;;;;5.40;2.28;;;12.70;99.90;;;;;;4167826;28;20045;-63
2022/10/03 01:37:21;;;;;;;8.77;2.20;;;12.70;99.90;;;;;;4164621;28;20040;-62
2022/10/03 01:39:34;;;;;;;6.20;2.30;;;12.70;99.90;;;;;;4161992;28;20044;-62
2022/10/03 01:42:19;;;;;;;5.97;2.65;;;12.70;99.90;;;;;;4167198;28;20033;-62
2022/10/03 01:44:39;;;;;;;6.07;2.47;;;12.70;99.90;;;;;;4170585;28;20044;-61
2022/10/03 01:46:54;;;;;;;9.70;2.70;;;12.70;99.90;;;;;;4169030;28;20029;-62
2022/10/03 01:49:00;;;;;;;4.22;2.28;;;12.70;99.90;;;;;;4167087;28;20045;-62
2022/10/03 01:51:28;;;;;;;6.30;2.20;;;12.70;99.90;;;;;;4166506;28;20036;-62
2022/10/03 01:54:02;;;;;;;4.60;2.22;;;12.70;99.90;;;;;;4170544;28;20031;-62
2022/10/03 01:56:17;;;;;;;;;;;12.60;99.90;;;;;;4168147;28;20473;-62
2022/10/03 01:58:31;;;;;;;3.92;1.90;;;12.70;99.90;;;;;;4170558;28;19916;-62
2022/10/03 02:00:58;;;;;;;5.25;1.92;;;12.60;99.90;;;;;;4164350;28;20037;-62
2022/10/03 02:03:01;;;;;;;4.75;2.38;;;12.60;99.90;;;;;;4168893;28;20083;-62
2022/10/03 02:05:37;;;;;;;4.30;1.85;;;12.60;99.90;;;;;;4168117;28;20120;-63
2022/10/03 02:08:04;;;;;;;5.25;1.98;;;12.50;99.90;;;;;;4169923;28;20424;-62
2022/10/03 02:10:06;;;;;;;5.05;2.40;;;12.50;99.90;;;;;;4169408;28;20033;-62
2022/10/03 02:12:20;;;;;;;5.60;2.40;;;12.50;99.90;;;;;;4169998;28;20064;-61
2022/10/03 02:14:34;;;;;;;6.45;2.08;;;12.50;99.90;;;;;;4144583;28;20054;-62
2022/10/03 02:16:56;;;;;;;5.63;1.73;;;12.50;99.90;;;;;;4143929;28;20038;-62
2022/10/03 02:19:09;;;;;;;6.22;1.92;;;12.50;99.90;;;;;;4144085;28;20037;-62
2022/10/03 02:21:18;;;;;;;3.45;1.50;;;12.50;99.90;;;;;;4142203;28;20485;-62
2022/10/03 02:23:42;;;;;;;6.43;2.20;;;12.50;99.90;;;;;;4145108;28;20185;-62
2022/10/03 02:26:13;;;;;;;7.60;2.28;;;12.50;99.90;;;;;;4143987;28;20053;-62
2022/10/03 02:28:35;;;;;;;6.57;2.63;;;12.40;99.90;;;;;;4144314;28;20056;-62
2022/10/03 02:30:50;;;;;;;6.82;2.72;;;12.40;99.90;;;;;;4152974;28;20046;-62
2022/10/03 02:32:57;;;;;;;9.25;3.00;;;12.40;99.90;;;;;;4156864;28;20515;-61
2022/10/03 02:35:25;;;;;;;6.63;2.85;;;12.40;99.90;;;;;;4158411;28;20037;-62
2022/10/03 02:37:50;;;;;;;9.93;2.88;;;12.40;99.90;;;;;;4140675;28;20121;-62
2022/10/03 02:39:53;;;;;;;5.53;2.50;;;12.30;99.90;;;;;;4146656;28;20073;-62
2022/10/03 02:42:14;;;;;;;5.95;2.50;;;12.40;99.90;;;;;;4158340;28;20046;-62
2022/10/03 02:44:45;;;;;;;5.15;2.40;;;12.30;99.90;;;;;;4160087;28;20033;-62
2022/10/03 02:47:16;;;;;;;4.93;2.33;;;12.30;99.90;;;;;;4158025;28;20033;-61
2022/10/03 02:49:44;;;;;;;4.80;2.10;;;12.20;99.90;;;;;;4158989;28;20539;-61
2022/10/03 02:52:08;;;;;;;5.25;2.38;;;12.30;99.90;;;;;;4158386;28;20049;-62
2022/10/03 02:54:36;;;;;;;6.53;2.25;;;12.30;99.90;;;;;;4158433;28;20038;-62
2022/10/03 02:56:43;;;;;;;6.35;2.58;;;12.30;99.90;;;;;;4159309;28;20030;-62
2022/10/03 02:59:02;;;;;;;5.03;2.33;;;12.30;99.90;;;;;;4158777;28;20088;-62
2022/10/03 03:01:59;;;;;;;6.15;2.60;;;12.20;99.90;;;;;;4158164;28;20028;-62
2022/10/03 03:04:23;;;;;;;7.47;2.95;;;12.20;99.90;;;;;;4111557;28;20191;-63
2022/10/03 03:06:48;;;;;;;9.05;3.08;;;12.30;99.90;;;;;;4109778;28;20505;-62
2022/10/03 03:09:35;;;;;;;5.45;2.70;;;12.30;99.90;;;;;;4133696;28;20026;-62
2022/10/03 03:12:28;;;;;;;9.63;2.75;;;12.30;99.90;;;;;;4157400;28;20457;-62
2022/10/03 03:15:00;;;;;;;7.70;2.30;;;12.30;99.90;;;;;;4148457;28;20041;-63
2022/10/03 03:17:35;;;;;;;7.78;3.05;;;12.30;99.90;;;;;;4163644;28;20044;-62
2022/10/03 03:20:02;;;;;;;9.10;3.00;;;12.30;99.90;;;;;;4142981;28;20033;-62
2022/10/03 03:22:05;;;;;;;5.60;2.22;;;12.30;99.90;;;;;;4165101;28;20087;-62
2022/10/03 03:24:23;;;;;;;7.18;2.60;;;12.30;99.90;;;;;;4148948;28;20034;-62
2022/10/03 03:26:39;;;;;;;6.95;3.10;;;12.30;99.90;;;;;;4164800;28;20130;-62
2022/10/03 03:28:49;;;;;;;9.20;2.65;;;12.30;99.90;;;;;;4164951;28;20041;-62
2022/10/03 03:30:52;;;;;;;6.35;2.60;;;12.30;99.90;;;;;;4166841;28;20053;-62
2022/10/03 03:33:22;;;;;;;6.78;3.17;;;12.30;99.90;;;;;;4166813;28;20073;-62
2022/10/03 03:35:38;;;;;;;8.38;2.92;;;12.30;99.90;;;;;;4166753;28;20041;-62
2022/10/03 03:38:02;;;;;;;6.60;3.13;;;12.30;99.90;;;;;;4165702;28;20270;-62
2022/10/03 03:40:33;;;;;;;10.85;3.42;;;12.20;99.90;;;;;;4167743;28;20071;-62
2022/10/03 03:42:59;;;;;;;6.03;2.80;;;12.30;99.90;;;;;;4163171;28;20492;-62
2022/10/03 03:45:29;;;;;;;8.63;3.03;;;12.20;99.90;;;;;;4166728;28;20053;-62
2022/10/03 03:47:58;;;;;;;6.90;2.63;;;12.30;99.90;;;;;;4169575;28;20044;-62
2022/10/03 03:50:33;;;;;;;5.18;2.47;;;12.20;99.90;;;;;;4168471;28;20045;-62
2022/10/03 03:52:49;;;;;;;4.25;2.42;;;12.20;99.90;;;;;;4167608;28;20032;-62
2022/10/03 03:55:15;;;;;;;6.10;2.70;;;12.20;99.90;;;;;;4164783;28;20041;-62
2022/10/03 03:57:40;;;;;;;4.90;2.72;;;12.20;99.90;;;;;;4150434;28;20038;-62
2022/10/03 03:59:44;;;;;;;5.70;2.38;;;12.20;99.90;;;;;;4146901;28;20034;-62
2022/10/03 04:02:25;;;;;;;8.50;3.17;;;12.20;99.90;;;;;;4147158;28;20041;-62
2022/10/03 04:04:41;;;;;;;6.50;2.78;;;12.20;99.90;;;;;;4124097;28;20039;-62
2022/10/03 04:06:47;;;;;;;6.10;2.78;;;12.20;99.90;;;;;;4163316;28;20033;-62
2022/10/03 04:09:13;;;;;;;8.90;3.55;;;12.20;99.90;;;;;;4165455;28;20033;-62
2022/10/03 04:11:48;;;;;;;8.35;3.05;;;12.20;99.90;;;;;;4163651;28;20037;-62
2022/10/03 04:14:27;;;;;;;6.80;2.70;;;12.10;99.90;;;;;;4164072;28;20080;-62
2022/10/03 04:19:23;;;;;;;5.20;2.30;;;12.20;99.90;;;;;;4167042;28;20061;-62
2022/10/03 04:21:50;;;;;;;8.40;3.22;;;12.20;99.90;;;;;;4165035;28;20029;-62
2022/10/03 04:24:31;;;;;;;8.32;2.97;;;12.10;99.90;;;;;;4156424;28;20034;-62
2022/10/03 04:26:39;;;;;;;7.30;2.65;;;12.10;99.90;;;;;;4149384;28;20419;-62
2022/10/03 04:29:15;;;;;;;4.43;2.65;;;12.10;99.90;;;;;;4151046;28;20022;-61
2022/10/03 04:31:55;;;;;;;5.30;2.55;;;12.10;99.90;;;;;;4151253;28;20489;-62
2022/10/03 04:34:30;;;;;;;12.30;2.80;;;12.10;99.90;;;;;;4117551;28;20393;-61
2022/10/03 04:36:55;;;;;;;5.18;2.83;;;12.10;99.90;;;;;;4149777;28;20507;-64
2022/10/03 04:39:25;;;;;;;6.15;2.42;;;12.10;99.90;;;;;;4149016;28;20038;-62
2022/10/03 04:41:43;;;;;;;5.15;2.58;;;12.10;99.90;;;;;;4146491;28;20473;-61
2022/10/03 04:43:59;;;;;;;6.60;2.42;;;12.10;99.90;;;;;;4150270;28;20497;-62
2022/10/03 04:46:32;;;;;;;5.93;2.75;;;12.00;99.90;;;;;;4150345;28;20030;-62
2022/10/03 04:48:44;;;;;;;5.55;2.30;;;12.00;99.90;;;;;;4149531;28;20534;-61
2022/10/03 04:50:56;;;;;;;4.95;2.58;;;12.00;99.90;;;;;;4148454;28;20117;-61
2022/10/03 04:53:08;;;;;;;5.60;2.55;;;12.00;99.90;;;;;;4150204;28;20037;-61
2022/10/03 04:55:34;;;;;;;5.28;2.53;;;11.90;99.90;;;;;;4147391;28;20125;-64
2022/10/03 04:58:04;;;;;;;4.75;2.55;;;11.90;99.90;;;;;;4145980;28;20116;-62
2022/10/03 05:00:33;;;;;;;5.57;2.40;;;11.90;99.90;;;;;;4161168;28;20048;-62
2022/10/03 05:03:08;;;;;;;6.13;2.78;;;11.90;99.90;;;;;;4148701;28;20057;-62
2022/10/03 05:05:37;;;;;;;8.32;2.67;;;11.90;99.90;;;;;;4146881;28;20084;-62
2022/10/03 05:07:49;;;;;;;8.07;2.65;;;11.90;99.90;;;;;;4149208;28;20034;-61
2022/10/03 05:09:55;;;;;;;7.75;2.97;;;11.90;99.90;;;;;;4147773;28;20116;-61
2022/10/03 05:12:08;;;;;;;8.13;2.70;;;11.90;99.90;;;;;;4147453;28;20041;-61
2022/10/03 05:14:43;;;;;;;8.52;3.50;;;11.80;99.90;;;;;;4162275;28;20128;-61
2022/10/03 05:17:07;;;;;;;5.57;2.38;;;11.80;99.90;;;;;;4166689;28;20072;-61
2022/10/03 05:19:16;;;;;;;7.15;2.83;;;11.80;99.90;;;;;;4166497;28;20087;-61
2022/10/03 05:21:49;;;;;;;5.20;2.92;;;11.70;99.90;;;;;;4166309;28;20025;-61
2022/10/03 05:24:08;;;;;;;8.88;2.90;;;11.80;99.90;;;;;;4164903;28;20534;-62
2022/10/03 05:26:30;;;;;;;6.82;2.97;;;11.80;99.90;;;;;;4164411;28;20032;-62
2022/10/03 05:28:49;;;;;;;5.22;2.45;;;11.70;99.90;;;;;;4151275;28;20469;-63
2022/10/03 05:31:11;;;;;;;8.10;2.97;;;11.80;99.90;;;;;;4163145;28;20125;-61
2022/10/03 05:33:45;;;;;;;7.07;2.97;;;11.70;99.90;;;;;;4164897;28;20026;-62
2022/10/03 05:35:58;;;;;;;5.30;2.55;;;11.80;99.90;;;;;;4164890;28;20041;-62
2022/10/03 05:38:02;;;;;;;9.20;3.28;;;11.70;99.90;;;;;;4163184;28;20047;-63
2022/10/03 05:40:10;;;;;;;7.60;2.90;;;11.80;99.90;;;;;;4163757;28;20117;-64
2022/10/03 05:42:44;;;;;;;6.25;2.70;;;11.80;99.90;;;;;;4167250;28;20033;-65
2022/10/03 05:45:02;;;;;;;6.35;2.50;;;11.80;99.90;;;;;;4166524;28;20044;-65
2022/10/03 05:47:48;;;;;;;4.35;2.55;;;11.80;99.90;;;;;;4160394;28;20034;-65
2022/10/03 05:50:00;;;;;;;5.25;2.60;;;11.80;99.90;;;;;;4125714;28;20071;-65
2022/10/03 05:52:11;;;;;;;8.98;2.90;;;11.80;99.90;;;;;;4163280;28;20461;-66
2022/10/03 05:54:38;;;;;;;7.75;2.78;;;11.80;99.90;;;;;;4164296;28;20542;-65
2022/10/03 05:57:18;;;;;;;10.27;3.63;;;11.80;99.90;;;;;;4163075;28;20099;-64
2022/10/03 05:59:31;;;;;;;10.45;3.65;;;11.80;99.90;;;;;;4163099;28;20108;-65
2022/10/03 06:01:40;;;;;;;;;;;11.80;99.90;;;;;;4165401;28;20379;-65
2022/10/03 06:04:02;;;;;;;5.93;2.70;;;11.80;99.90;;;;;;4145766;28;19913;-65
2022/10/03 06:06:19;;;;;;;8.45;2.97;;;11.80;99.90;;;;;;4145075;28;20030;-65
2022/10/03 06:08:44;;;;;;;4.28;2.70;;;11.80;99.90;;;;;;4161280;28;20066;-65
2022/10/03 06:11:14;;;;;;;5.60;2.72;;;11.80;99.90;;;;;;4162885;28;20059;-65
2022/10/03 06:13:44;;;;;;;8.40;2.55;;;11.80;99.90;;;;;;4159511;28;20037;-65
2022/10/03 06:15:55;;;;;;;5.55;2.53;;;11.80;99.90;;;;;;4162311;28;20036;-65
2022/10/03 06:18:21;;;;;;;4.93;2.33;;;11.80;99.90;;;;;;4166286;28;20041;-64
2022/10/03 06:21:02;;;;;;;7.63;3.05;;;11.80;99.90;;;;;;4163324;28;20080;-65
2022/10/03 06:23:11;;;;;;;5.95;2.78;;;11.90;99.90;;;;;;4165552;28;20047;-65
2022/10/03 06:25:21;;;;;;;7.75;3.03;;;11.90;99.90;;;;;;4164484;28;20539;-64
2022/10/03 06:28:18;;;;;;;5.00;2.10;;;11.90;99.90;;;;;;4163946;28;20037;-65
2022/10/03 06:31:12;;;;;;;7.57;3.15;;;11.90;99.90;;;;;;4123233;28;20034;-65
2022/10/03 06:33:57;;;;;;;7.20;3.58;;;11.90;99.90;;;;;;4092922;28;20032;-65
2022/10/03 06:36:19;;;;;;;7.95;3.10;;;12.00;99.90;;;;;;4096719;28;20031;-65
2022/10/03 06:38:19;;;;;;;6.50;3.13;;;12.00;99.90;;;;;;4125865;28;20037;-65
2022/10/03 06:40:41;;;;;;;7.43;2.83;;;12.00;99.90;;;;;;4123231;28;20035;-65
2022/10/03 06:42:58;;;;;;;7.28;3.15;;;12.00;99.90;;;;;;4156930;28;20059;-65
2022/10/03 06:45:34;;;;;;;6.85;2.90;;;12.10;99.90;;;;;;4165841;28;20033;-67
2022/10/03 06:48:03;;;;;;;6.07;2.92;;;12.10;99.90;;;;;;4167193;28;20027;-65
2022/10/03 06:50:12;;;;;;;8.90;3.45;;;12.10;99.90;;;;;;4165881;28;20060;-65
2022/10/03 06:52:30;;;;;;;7.13;3.30;;;12.20;99.90;;;;;;4163265;28;20052;-65
2022/10/03 06:55:09;;;;;;;8.32;3.38;;;12.20;99.90;;;;;;4164736;28;20126;-65
2022/10/03 06:57:29;;;;;;;6.00;3.13;;;12.30;99.90;;;;;;4165060;28;20086;-65
2022/10/03 06:59:48;;;;;;;8.80;3.00;;;12.30;99.90;;;;;;4151576;28;20045;-65
2022/10/03 07:01:51;;;;;;;6.70;2.95;;;12.40;99.90;;;;;;4162898;28;20551;-65
2022/10/03 07:04:04;;;;;;;6.38;3.08;;;12.40;99.90;;;;;;4164166;28;20029;-64
2022/10/03 07:06:20;;;;;;;7.53;3.28;;;12.40;99.90;;;;;;4165393;28;20033;-65
2022/10/03 07:08:44;;;;;;;8.40;3.67;;;12.40;99.90;;;;;;4165500;28;20037;-65
2022/10/03 07:11:27;;;;;;;7.72;2.85;;;12.50;99.90;;;;;;4165646;28;20377;-65
2022/10/03 07:14:00;;;;;;;5.97;3.00;;;12.50;99.90;;;;;;4164523;28;20065;-65
2022/10/03 07:16:23;;;;;;;6.00;2.92;;;12.50;99.90;;;;;;4113983;28;20021;-65
2022/10/03 07:18:38;;;;;;;6.50;3.30;;;12.50;99.90;;;;;;4168803;28;20409;-65
2022/10/03 07:21:00;;;;;;;9.02;3.00;;;12.60;99.90;;;;;;4156515;28;20109;-65
2022/10/03 07:23:11;;;;;;;6.93;2.97;;;12.60;99.90;;;;;;4166596;28;20458;-65
2022/10/03 07:25:29;;;;;;;8.52;3.25;;;12.60;99.90;;;;;;4145565;28;20374;-65
2022/10/03 07:27:48;;;;;;;5.55;2.70;;;12.70;99.90;;;;;;4168008;28;20542;-65
2022/10/03 07:29:57;;;;;;;6.72;2.88;;;12.70;99.90;;;;;;4157216;28;20033;-65
2022/10/03 07:32:08;;;;;;;10.52;3.60;;;12.80;99.90;;;;;;4162919;28;20037;-64
2022/10/03 07:34:09;;;;;;;9.20;3.40;;;13.00;99.90;;;;;;4168796;28;20036;-65
2022/10/03 07:39:08;;;;;;;4.97;2.53;;;13.20;99.90;;;;;;4163959;28;20044;-65
2022/10/03 07:41:31;;;;;;;6.95;2.83;;;13.50;99.90;;;;;;4155051;28;20046;-65
2022/10/03 07:44:19;;;;;;;4.78;2.65;;;13.70;99.90;;;;;;4156894;28;20030;-65
2022/10/03 07:46:45;;;;;;;7.78;3.10;;;14.10;99.90;;;;;;4148154;28;20025;-65
2022/10/03 07:49:13;;;;;;;7.32;2.95;;;14.40;99.90;;;;;;4154677;28;20401;-65
2022/10/03 07:51:42;;;;;;;9.43;2.97;;;14.80;99.90;;;;;;4158124;28;20022;-65
2022/10/03 07:53:54;;;;;;;6.68;2.90;;;15.10;99.90;;;;;;4170707;28;20056;-65
2022/10/03 07:56:16;;;;;;;7.50;3.08;;;15.50;99.90;;;;;;4172155;28;20056;-65
2022/10/03 07:58:28;;;;;;;6.30;2.80;;;15.90;99.90;;;;;;4170265;28;20035;-66
2022/10/03 08:00:55;;;;;;;7.60;2.80;;;16.20;99.90;;;;;;4170867;28;20117;-67
2022/10/03 08:03:45;;;;;;;5.30;2.40;;;16.60;99.90;;;;;;4171657;28;20037;-66
2022/10/03 08:06:27;;;;;;;5.70;2.38;;;16.90;99.90;;;;;;4077545;29;20043;-65
2022/10/03 08:08:52;;;;;;;7.30;2.63;;;17.30;99.90;;;;;;4073548;29;20043;-66
2022/10/03 08:11:12;;;;;;;4.97;2.25;;;17.50;99.90;;;;;;4109940;28;20057;-66
2022/10/03 08:13:19;;;;;;;5.47;2.20;;;17.60;99.90;;;;;;4163518;28;20065;-66
2022/10/03 08:15:34;;;;;;;5.25;2.10;;;17.60;99.90;;;;;;4160541;28;20045;-66
2022/10/03 08:18:05;;;;;;;5.05;2.20;;;17.60;99.90;;;;;;4152601;28;20030;-66
2022/10/03 08:20:18;;;;;;;7.18;2.42;;;17.70;99.90;;;;;;4164031;28;20488;-68
2022/10/03 08:22:27;;;;;;;10.20;2.72;;;17.80;99.90;;;;;;4166891;28;20040;-67
2022/10/03 08:25:06;;;;;;;5.43;2.40;;;17.80;99.90;;;;;;4167366;28;20041;-67
2022/10/03 08:27:19;;;;;;;7.22;2.45;;;17.80;99.90;;;;;;4148560;28;20026;-66
2022/10/03 08:29:50;;;;;;;5.25;2.40;;;17.80;99.90;;;;;;4157238;28;20160;-66
2022/10/03 08:31:57;;;;;;;5.55;2.47;;;17.80;99.90;;;;;;4153573;28;20092;-65
2022/10/03 08:34:45;;;;;;;5.10;2.30;;;17.80;99.90;;;;;;4166289;28;20377;-65
2022/10/03 08:37:01;;;;;;;9.48;3.15;;;17.90;99.90;;;;;;4171779;28;20476;-66
2022/10/03 08:39:10;;;;;;;8.57;2.95;;;17.80;99.90;;;;;;4166316;28;20114;-66
2022/10/03 08:41:32;;;;;;;6.18;2.80;;;17.80;99.90;;;;;;4171262;28;20033;-66
2022/10/03 08:44:06;;;;;;;8.18;2.40;;;17.80;99.90;;;;;;4170378;28;20100;-65
2022/10/03 08:46:43;;;;;;;5.72;2.25;;;17.80;99.90;;;;;;4164087;28;20428;-66
2022/10/03 08:48:56;;;;;;;8.40;2.55;;;17.80;99.90;;;;;;4150568;28;20116;-66
2022/10/03 08:51:27;;;;;;;4.40;2.17;;;17.80;99.90;;;;;;4145288;28;20106;-66
2022/10/03 08:53:52;;;;;;;5.65;2.05;;;17.90;99.90;;;;;;4153367;28;20049;-66
2022/10/03 08:56:13;;;;;;;5.32;2.30;;;17.90;99.90;;;;;;4150997;28;20049;-66
2022/10/03 08:58:28;;;;;;;4.25;2.40;;;18.00;99.90;;;;;;4166219;28;20057;-66
2022/10/03 09:00:46;;;;;;;7.25;2.40;;;18.10;99.90;;;;;;4152919;28;20548;-66
2022/10/03 09:03:08;;;;;;;3.65;1.67;;;18.10;99.90;;;;;;4170549;28;20034;-66
2022/10/03 09:05:27;;;;;;;8.00;2.58;;;18.20;99.90;;;;;;4167374;28;20476;-68
2022/10/03 09:07:51;;;;;;;5.15;2.03;;;18.20;99.90;;;;;;4163556;28;20068;-66
2022/10/03 09:10:22;;;;;;;6.50;2.08;;;18.20;99.90;;;;;;4163047;28;20056;-65
2022/10/03 09:12:41;;;;;;;4.90;2.30;;;18.30;99.90;;;;;;4179497;28;20029;-65
2022/10/03 09:14:55;;;;;;;4.85;2.03;;;18.30;99.90;;;;;;4168311;28;20040;-66
2022/10/03 09:17:34;;;;;;;5.55;2.35;;;18.30;99.90;;;;;;4146434;28;20079;-65
2022/10/03 09:20:12;;;;;;;4.38;1.67;;;18.30;99.90;;;;;;4132529;28;20050;-65
2022/10/03 09:22:45;;;;;;;3.15;1.38;;;18.40;99.90;;;;;;4132933;28;20114;-65
2022/10/03 09:25:22;;;;;;;8.57;2.28;;;18.40;99.90;;;;;;4138989;28;20033;-65
2022/10/03 09:27:42;;;;;;;4.60;2.00;;;18.50;99.90;;;;;;4150454;28;20477;-65
2022/10/03 09:30:16;;;;;;;6.82;2.22;;;18.50;99.90;;;;;;4151544;28;20128;-64
2022/10/03 09:32:36;;;;;;;7.15;2.35;;;18.60;99.90;;;;;;4153961;28;20511;-64
2022/10/03 09:35:15;;;;;;;4.78;2.33;;;18.60;99.90;;;;;;4149406;28;20038;-66
2022/10/03 09:37:51;;;;;;;4.78;2.17;;;18.60;99.90;;;;;;4149484;28;20018;-65
2022/10/03 09:40:13;;;;;;;7.88;2.35;;;18.70;99.90;;;;;;4076041;29;20042;-65
2022/10/03 09:42:16;;;;;;;3.03;1.55;;;18.70;99.90;;;;;;4124747;28;20233;-65
2022/10/03 09:44:35;;;;;;;3.83;1.50;;;18.70;99.90;;;;;;4150308;28;20029;-65
2022/10/03 09:49:36;;;;;;;5.15;1.60;;;18.80;99.90;;;;;;4173196;28;20033;-65
2022/10/03 09:51:50;;;;;;;3.75;1.58;;;18.80;99.90;;;;;;4164629;28;20037;-65
2022/10/03 09:54:27;;;;;;;3.60;1.30;;;18.80;99.90;;;;;;4162980;28;20227;-65
2022/10/03 09:56:46;;;;;;;4.97;1.40;;;18.80;99.90;;;;;;4150772;28;20489;-65
2022/10/03 09:59:20;;;;;;;6.07;1.67;;;18.90;99.90;;;;;;4152340;28;20489;-65
2022/10/03 10:01:35;;;;;;;5.40;1.38;;;18.90;99.90;;;;;;4145061;28;20376;-65
2022/10/03 10:03:59;;;;;;;4.28;1.30;;;18.90;99.90;;;;;;4154920;28;20036;-66
2022/10/03 10:06:20;;;;;;;5.35;1.63;;;18.90;99.90;;;;;;4128265;28;20504;-67
2022/10/03 10:09:07;;;;;;;4.93;1.45;;;18.90;99.90;;;;;;4157887;28;20030;-65
2022/10/03 10:11:28;;;;;;;4.95;1.38;;;18.90;99.90;;;;;;4090474;28;20039;-65
2022/10/03 10:13:47;;;;;;;3.22;1.15;;;18.90;99.90;;;;;;4164020;28;20048;-65
2022/10/03 10:16:22;;;;;;;3.78;1.15;;;18.90;99.90;;;;;;4168306;28;20532;-65
2022/10/03 10:18:46;;;;;;;1.98;0.90;;;18.90;99.90;;;;;;4173716;28;20026;-65
2022/10/03 10:21:24;;;;;;;3.53;1.23;;;18.90;99.90;;;;;;4171802;28;20037;-66
2022/10/03 10:23:45;;;;;;;3.95;1.42;;;18.90;99.90;;;;;;4158782;28;20033;-65
2022/10/03 10:26:08;;;;;;;4.57;1.38;;;18.90;99.90;;;;;;4164428;28;20049;-65
2022/10/03 10:28:12;;;;;;;5.63;1.42;;;18.90;99.90;;;;;;4157370;28;20386;-66
2022/10/03 10:30:40;;;;;;;2.85;1.20;;;19.00;99.90;;;;;;4161254;28;20030;-65
2022/10/03 10:32:46;;;;;;;4.13;0.90;;;19.00;99.90;;;;;;4159208;28;20052;-66
2022/10/03 10:35:31;;;;;;;2.40;1.15;;;19.10;99.90;;;;;;4158134;28;20579;-66
2022/10/03 10:37:47;;;;;;;5.28;1.33;;;19.10;99.90;;;;;;4137377;28;20037;-65
2022/10/03 10:40:08;;;;;;;3.53;1.10;;;19.10;99.90;;;;;;4139650;28;20037;-65
2022/10/03 10:42:27;;;;;;;4.40;1.02;;;19.10;99.90;;;;;;4137932;28;20083;-65
2022/10/03 10:44:52;;;;;;;2.03;0.93;;;19.10;99.90;;;;;;4172477;28;20032;-65
2022/10/03 10:47:12;;;;;;;2.08;1.08;;;19.20;99.90;;;;;;4172673;28;20381;-65
2022/10/03 10:49:38;;;;;;;9.00;1.02;;;19.20;99.90;;;;;;4139621;28;20026;-66
2022/10/03 10:52:32;;;;;;;3.50;1.05;;;19.20;99.90;;;;;;4147645;28;20026;-66
2022/10/03 10:55:09;;;;;;;3.20;1.02;;;19.20;99.90;;;;;;4135271;28;20037;-66
2022/10/03 10:57:25;;;;;;;6.20;1.42;;;19.10;99.90;;;;;;4170154;28;20039;-66
2022/10/03 10:59:56;;;;;;;4.28;1.45;;;19.10;99.90;;;;;;4173843;28;20034;-65
2022/10/03 11:02:06;;;;;;;3.83;0.90;;;19.10;99.90;;;;;;4165464;28;20373;-66
2022/10/03 11:04:09;;;;;;;4.25;1.42;;;19.00;99.90;;;;;;4157037;28;20488;-67
2022/10/03 11:06:13;;;;;;;8.90;1.90;;;19.00;99.90;;;;;;4162297;28;20044;-66
2022/10/03 11:08:35;;;;;;;3.97;1.20;;;19.00;99.90;;;;;;4176319;28;20033;-65
2022/10/03 11:10:57;;;;;;;2.53;1.00;;;18.90;99.90;;;;;;4171524;28;20028;-67
2022/10/03 11:13:19;;;;;;;2.50;0.93;;;18.80;99.90;;;;;;4165690;28;20026;-66
2022/10/03 11:15:46;;;;;;;4.88;1.15;;;18.80;99.90;;;;;;4166221;28;20049;-65
2022/10/03 11:18:24;;;;;;;2.83;1.13;;;18.80;99.90;;;;;;4152368;28;20062;-66
2022/10/03 11:20:56;;;;;;;3.13;0.95;;;18.80;99.90;;;;;;4172897;28;20032;-65
2022/10/03 11:23:15;;;;;;;2.45;0.75;;;18.70;99.90;;;;;;4169818;28;20041;-66
2022/10/03 11:26:00;;;;;;;3.70;1.10;;;18.70;99.90;;;;;;4172270;28;20104;-66
2022/10/03 11:28:18;;;;;;;3.45;0.88;;;18.70;99.90;;;;;;4171876;28;20038;-67
2022/10/03 11:30:56;;;;;;;3.13;1.05;;;18.70;99.90;;;;;;4155042;28;20038;-65
2022/10/03 11:33:42;;;;;;;5.68;1.27;;;18.50;99.90;;;;;;4159507;28;20041;-66
2022/10/03 11:35:58;;;;;;;2.08;0.75;;;18.50;99.90;;;;;;4134547;28;20029;-66
2022/10/03 11:38:29;;;;;;;2.50;0.70;;;18.60;99.90;;;;;;4168136;28;20038;-65
2022/10/03 11:40:45;;;;;;;4.20;1.20;;;18.60;99.90;;;;;;4167912;28;20048;-64
2022/10/03 11:42:57;;;;;;;6.60;1.60;;;18.70;99.90;;;;;;4167910;28;20417;-66
2022/10/03 11:45:01;;;;;;;4.55;1.40;;;18.80;99.90;;;;;;4153911;28;20417;-66
2022/10/03 11:47:30;;;;;;;2.47;0.90;;;18.80;99.90;;;;;;4158683;28;20030;-66
2022/10/03 11:49:55;;;;;;;2.58;1.00;;;18.90;99.90;;;;;;4162729;28;20101;-69
2022/10/03 11:52:07;;;;;;;3.03;0.63;;;18.90;99.90;;;;;;4162845;28;20046;-65
2022/10/03 11:54:26;;;;;;;2.33;0.80;;;18.90;99.90;;;;;;4155042;28;20045;-67
2022/10/03 11:56:41;;;;;;;3.20;0.73;;;19.00;99.90;;;;;;4145987;28;20033;-66
2022/10/03 11:58:41;;;;;;;3.85;0.88;;;18.80;99.90;;;;;;4167918;28;20569;-66
2022/10/03 12:00:46;;;;;;;2.58;0.73;;;18.80;99.90;;;;;;4162176;28;20779;-66
2022/10/03 12:03:25;;;;;;;5.97;1.45;;;18.90;99.90;;;;;;4169936;28;20032;-66
2022/10/03 12:05:51;;;;;;;4.15;1.02;;;18.90;99.90;;;;;;4144577;28;20111;-66
2022/10/03 12:10:58;;;;;;;1.48;0.60;;;18.80;99.90;;;;;;4166533;28;20026;-66
2022/10/03 12:13:07;;;;;;;2.58;0.75;;;18.80;99.90;;;;;;4165674;28;20516;-66
2022/10/03 12:15:31;;;;;;;2.55;0.70;;;18.90;99.90;;;;;;4163613;28;20041;-67
2022/10/03 12:17:35;;;;;;;1.95;1.08;;;18.90;99.90;;;;;;4166329;28;20064;-66
2022/10/03 12:20:01;;;;;;;2.83;0.85;;;18.90;99.90;;;;;;4164277;28;20035;-66
2022/10/03 12:22:19;;;;;;;3.53;1.05;;;18.80;99.90;;;;;;4146782;28;20118;-66
2022/10/03 12:24:31;;;;;;;2.47;0.88;;;18.80;99.90;;;;;;4164614;28;20052;-64
2022/10/03 12:26:51;;;;;;;2.78;0.77;;;18.80;99.90;;;;;;4168746;28;20111;-63
2022/10/03 12:28:54;;;;;;;1.52;0.43;;;18.80;99.90;;;;;;4158177;28;20033;-64
2022/10/03 12:31:09;;;;;;;2.08;0.80;;;18.90;99.90;;;;;;4147968;28;20030;-64
2022/10/03 12:33:42;;;;;;;1.42;0.50;;;18.90;99.90;;;;;;4162854;28;20044;-64
2022/10/03 12:36:02;;;;;;;2.83;0.77;;;19.00;99.90;;;;;;4169789;28;20040;-64